Time;durP1;ratioP1;P1;durP2;ratioP2;P2;SDS_P1;SDS_P2;PMS_P1;PMS_P2;Temp;Humidity;BMP_temperature;BMP_pressure;BME280_temperature;BME280_humidity;BME280_pressure;Samples;Min_cycle;Max_cycle;Signal;HPM_P1;HPM_P2
2023/03/19 00:01:11;;;;;;;22.45;13.82;;;;;;;8.91;63.08;100789.69;7396509;19;20014;-69
2023/03/19 00:03:39;;;;;;;23.52;13.95;;;;;;;8.88;63.21;100783.63;7395744;19;20025;-74
2023/03/19 00:06:08;;;;;;;21.08;13.32;;;;;;;8.87;63.26;100782.78;7396637;19;20086;-70
2023/03/19 00:08:37;;;;;;;18.35;13.25;;;;;;;8.84;63.19;100781.94;7395114;19;20478;-73
2023/03/19 00:11:08;;;;;;;19.15;13.43;;;;;;;8.80;63.20;100776.75;7396164;19;20090;-69
2023/03/19 00:13:36;;;;;;;18.95;12.65;;;;;;;8.78;63.25;100782.88;7395413;19;20014;-70
2023/03/19 00:16:06;;;;;;;20.45;13.00;;;;;;;8.75;63.30;100783.78;7395717;19;20525;-69
2023/03/19 00:18:37;;;;;;;21.65;12.95;;;;;;;8.72;63.45;100783.84;7396074;19;20010;-69
2023/03/19 00:21:06;;;;;;;23.60;13.73;;;;;;;8.71;63.41;100781.25;7396505;19;20086;-69
2023/03/19 00:23:35;;;;;;;18.98;12.52;;;;;;;8.70;63.48;100779.53;7393482;19;20021;-69
2023/03/19 00:26:03;;;;;;;20.25;12.75;;;;;;;8.67;63.49;100782.16;7395398;19;20078;-70
2023/03/19 00:28:32;;;;;;;19.35;14.00;;;;;;;8.67;63.30;100779.53;7393946;19;20019;-69
2023/03/19 00:31:09;;;;;;;20.20;12.88;;;;;;;8.65;63.33;100782.19;7394387;19;20502;-69
2023/03/19 00:33:40;;;;;;;19.90;13.48;;;;;;;8.62;63.58;100783.09;7394816;19;20014;-69
2023/03/19 00:36:10;;;;;;;20.33;14.23;;;;;;;8.60;63.65;100784.00;7394857;19;20078;-69
2023/03/19 00:38:39;;;;;;;23.73;14.75;;;;;;;8.58;63.53;100776.19;7394409;19;20026;-69
2023/03/19 00:41:08;;;;;;;21.15;14.70;;;;;;;8.58;63.61;100781.41;7395389;19;20074;-69
2023/03/19 00:43:37;;;;;;;23.42;14.23;;;;;;;8.56;63.56;100783.16;7394277;19;20078;-70
2023/03/19 00:46:06;;;;;;;21.95;14.07;;;;;;;8.54;63.82;100782.31;7393731;19;20074;-70
2023/03/19 00:48:34;;;;;;;19.27;13.65;;;;;;;8.52;63.59;100791.06;7394582;19;20018;-69
2023/03/19 00:51:10;;;;;;;22.00;14.45;;;;;;;8.48;63.50;100788.50;7394793;19;20070;-69
2023/03/19 00:53:40;;;;;;;20.13;13.75;;;;;;;8.47;63.61;100786.75;7394251;19;20031;-70
2023/03/19 00:56:10;;;;;;;17.95;12.52;;;;;;;8.44;63.57;100786.78;7394738;19;20536;-69
2023/03/19 00:58:39;;;;;;;22.33;13.95;;;;;;;8.42;63.68;100793.75;7394906;19;20025;-69
2023/03/19 01:01:08;;;;;;;20.58;13.15;;;;;;;8.43;63.79;100797.25;7395020;19;20030;-69
2023/03/19 01:03:37;;;;;;;20.23;13.18;;;;;;;8.44;63.89;100796.34;7394063;19;20074;-70
2023/03/19 01:06:08;;;;;;;21.65;14.02;;;;;;;8.43;63.93;100798.13;7394907;19;20082;-69
2023/03/19 01:08:37;;;;;;;20.48;13.25;;;;;;;8.43;64.07;100792.88;7394130;19;20067;-69
2023/03/19 01:11:11;;;;;;;20.48;13.70;;;;;;;8.43;63.93;100792.03;7392807;19;20428;-70
2023/03/19 01:13:40;;;;;;;19.52;13.13;;;;;;;8.43;64.03;100797.25;7393764;19;20082;-69
2023/03/19 01:16:09;;;;;;;21.27;13.82;;;;;;;8.43;63.92;100795.50;7392226;19;20014;-69
2023/03/19 01:18:38;;;;;;;17.90;12.98;;;;;;;8.43;64.05;100802.50;7394396;19;20074;-69
2023/03/19 01:21:09;;;;;;;18.75;12.65;;;;;;;8.42;63.97;100800.75;7394019;19;20017;-69
2023/03/19 01:23:38;;;;;;;23.80;13.85;;;;;;;8.41;64.08;100805.09;7393429;19;20023;-69
2023/03/19 01:26:07;;;;;;;20.38;13.77;;;;;;;8.40;64.13;100799.91;7391805;19;20518;-70
2023/03/19 01:28:35;;;;;;;18.35;13.63;;;;;;;8.41;63.94;100799.03;7393926;19;20023;-69
2023/03/19 01:31:08;;;;;;;17.65;13.10;;;;;;;8.40;63.99;100795.53;7391904;19;20017;-69
2023/03/19 01:33:37;;;;;;;19.38;13.57;;;;;;;8.40;63.91;100798.13;7392217;19;20023;-69
2023/03/19 01:36:09;;;;;;;19.35;12.98;;;;;;;8.38;63.84;100785.97;7391426;19;20359;-69
2023/03/19 01:38:38;;;;;;;18.02;13.23;;;;;;;8.36;63.95;100780.75;7393515;19;20496;-69
2023/03/19 01:41:06;;;;;;;21.50;13.18;;;;;;;8.36;63.91;100790.38;7393809;19;20024;-69
2023/03/19 01:43:35;;;;;;;18.80;13.63;;;;;;;8.31;63.81;100783.47;7392653;19;20094;-69
2023/03/19 01:46:07;;;;;;;20.55;13.65;;;;;;;8.31;63.90;100778.22;7395024;19;20046;-70
2023/03/19 01:48:40;;;;;;;21.77;13.30;;;;;;;8.31;64.01;100788.69;7398712;19;20015;-69
2023/03/19 01:51:13;;;;;;;18.40;13.13;;;;;;;8.31;64.12;100778.22;7394494;19;20047;-69
2023/03/19 01:53:46;;;;;;;23.50;13.70;;;;;;;8.31;63.97;100777.34;7392485;19;20023;-69
2023/03/19 01:56:19;;;;;;;21.77;14.20;;;;;;;8.34;64.24;100777.31;7393891;19;20022;-69
2023/03/19 01:58:51;;;;;;;17.83;13.52;;;;;;;8.35;63.96;100772.94;7396754;19;20070;-69
2023/03/19 02:01:20;;;;;;;16.88;12.05;;;;;;;8.35;64.24;100779.03;7400841;19;20070;-70
2023/03/19 02:03:48;;;;;;;19.65;13.93;;;;;;;8.37;64.35;100785.13;7398637;19;20422;-69
2023/03/19 02:06:21;;;;;;;20.77;12.52;;;;;;;8.38;64.09;100784.25;7400291;19;20078;-70
2023/03/19 02:08:51;;;;;;;20.48;14.98;;;;;;;8.38;64.09;100772.91;7399502;19;20537;-70
2023/03/19 02:11:20;;;;;;;20.08;13.93;;;;;;;8.37;64.36;100769.44;7400264;19;20078;-69
2023/03/19 02:13:49;;;;;;;23.63;13.45;;;;;;;8.39;64.13;100774.63;7399214;19;20021;-68
2023/03/19 02:16:18;;;;;;;20.75;13.38;;;;;;;8.39;64.15;100766.78;7399596;19;20495;-69
2023/03/19 02:18:46;;;;;;;21.17;14.05;;;;;;;8.33;64.34;100757.28;7399872;19;20018;-68
2023/03/19 02:21:20;;;;;;;20.02;13.43;;;;;;;8.38;64.35;100767.66;7399787;19;20041;-68
2023/03/19 02:23:56;;;;;;;21.13;13.10;;;;;;;8.37;64.17;100760.72;7398663;19;20010;-68
2023/03/19 02:26:30;;;;;;;18.33;12.20;;;;;;;8.35;64.41;100757.25;7400172;19;20089;-68
2023/03/19 02:28:59;;;;;;;20.92;12.63;;;;;;;8.32;64.42;100759.03;7399488;19;20021;-68
2023/03/19 02:31:27;;;;;;;20.98;13.07;;;;;;;8.32;64.49;100768.63;7397205;19;20035;-67
2023/03/19 02:34:01;;;;;;;19.90;13.55;;;;;;;8.30;64.48;100763.41;7397580;19;20014;-68
2023/03/19 02:36:36;;;;;;;19.70;12.52;;;;;;;8.30;64.50;100754.69;7399811;19;20022;-68
2023/03/19 02:39:07;;;;;;;20.42;13.18;;;;;;;8.29;64.45;100763.41;7397461;19;20024;-68
2023/03/19 02:41:41;;;;;;;20.60;13.00;;;;;;;8.27;64.88;100766.06;7399558;19;20098;-67
2023/03/19 02:44:13;;;;;;;25.15;13.68;;;;;;;8.27;64.62;100762.59;7397184;19;20497;-68
2023/03/19 02:46:42;;;;;;;18.55;14.15;;;;;;;8.25;64.73;100757.38;7399488;19;20010;-68
2023/03/19 02:49:10;;;;;;;24.17;14.00;;;;;;;8.24;64.59;100755.66;7396203;19;20007;-68
2023/03/19 02:51:40;;;;;;;19.95;12.57;;;;;;;8.24;64.74;100760.88;7398388;19;20094;-67
2023/03/19 02:54:09;;;;;;;20.92;13.70;;;;;;;8.23;64.72;100761.75;7396667;19;20029;-68
2023/03/19 02:56:40;;;;;;;19.60;12.88;;;;;;;8.23;64.61;100763.50;7398191;19;20546;-68
2023/03/19 02:59:08;;;;;;;18.92;13.02;;;;;;;8.22;64.89;100760.00;7397008;19;20019;-68
2023/03/19 03:01:37;;;;;;;18.73;13.05;;;;;;;8.23;65.12;100774.81;7398194;19;20090;-68
2023/03/19 03:04:06;;;;;;;21.75;13.20;;;;;;;8.23;64.67;100766.97;7396902;19;20025;-68
2023/03/19 03:06:34;;;;;;;17.85;11.43;;;;;;;8.23;64.68;100766.97;7396233;19;20018;-68
2023/03/19 03:09:03;;;;;;;21.52;14.65;;;;;;;8.23;64.78;100769.59;7396528;19;20015;-68
2023/03/19 03:11:32;;;;;;;17.65;12.90;;;;;;;8.24;64.92;100770.44;7397805;19;20511;-68
2023/03/19 03:14:03;;;;;;;19.98;12.95;;;;;;;8.25;64.84;100774.78;7395974;19;20018;-68
2023/03/19 03:16:31;;;;;;;18.42;12.57;;;;;;;8.26;64.91;100780.00;7398454;19;20014;-68
2023/03/19 03:19:01;;;;;;;19.48;12.88;;;;;;;8.27;64.92;100781.75;7395694;19;20545;-68
2023/03/19 03:21:29;;;;;;;20.27;13.32;;;;;;;8.29;64.51;100782.59;7397833;19;20014;-68
2023/03/19 03:23:58;;;;;;;21.10;13.10;;;;;;;8.31;64.61;100785.19;7396078;19;20427;-67
2023/03/19 03:26:26;;;;;;;20.83;12.05;;;;;;;8.34;64.79;100787.78;7397599;19;20074;-67
2023/03/19 03:28:55;;;;;;;24.25;15.30;;;;;;;8.35;64.72;100792.09;7397644;19;20010;-67
2023/03/19 03:31:26;;;;;;;19.88;12.63;;;;;;;8.37;64.52;100787.72;7395827;19;20011;-67
2023/03/19 03:33:55;;;;;;;21.67;13.63;;;;;;;8.40;64.32;100784.22;7395680;19;20022;-68
2023/03/19 03:36:24;;;;;;;19.38;14.27;;;;;;;8.41;64.35;100783.34;7396921;19;20017;-68
2023/03/19 03:38:52;;;;;;;20.67;12.68;;;;;;;8.40;64.18;100787.69;7395005;19;20364;-68
2023/03/19 03:41:21;;;;;;;26.73;14.60;;;;;;;8.42;64.37;100795.53;7395409;19;20015;-67
2023/03/19 03:43:49;;;;;;;20.00;14.13;;;;;;;8.44;64.16;100804.19;7394861;19;20015;-68
2023/03/19 03:46:18;;;;;;;22.23;15.35;;;;;;;8.45;64.29;100800.72;7397155;19;20051;-68
2023/03/19 03:48:50;;;;;;;18.77;14.05;;;;;;;8.44;64.11;100797.25;7396978;19;20029;-68
2023/03/19 03:51:18;;;;;;;22.55;13.68;;;;;;;8.47;64.20;100814.66;7395863;19;20054;-68
2023/03/19 03:53:53;;;;;;;22.80;13.73;;;;;;;8.44;63.60;100835.56;7395858;19;20011;-67
2023/03/19 03:56:21;;;;;;;20.33;13.38;;;;;;;8.43;64.00;100841.72;7396364;19;20500;-68
2023/03/19 03:58:50;;;;;;;20.77;14.27;;;;;;;8.39;63.96;100838.25;7396739;19;20077;-68
2023/03/19 04:01:20;;;;;;;22.73;14.48;;;;;;;8.36;64.53;100851.34;7396677;19;20078;-68
2023/03/19 04:03:51;;;;;;;24.63;14.25;;;;;;;8.35;64.53;100862.69;7395537;19;20029;-68
2023/03/19 04:06:23;;;;;;;30.42;15.48;;;;;;;8.30;64.51;100861.88;7395123;19;20022;-68
2023/03/19 04:08:52;;;;;;;21.58;14.57;;;;;;;8.23;64.92;100868.91;7396894;19;20078;-68
2023/03/19 04:11:22;;;;;;;23.23;15.07;;;;;;;8.19;64.96;100869.84;7394787;19;20014;-68
2023/03/19 04:13:51;;;;;;;22.83;13.93;;;;;;;8.15;65.23;100866.38;7395168;19;20018;-68
2023/03/19 04:16:20;;;;;;;20.85;14.80;;;;;;;8.16;65.25;100867.22;7395837;19;20482;-68
2023/03/19 04:18:57;;;;;;;20.15;13.70;;;;;;;8.14;65.27;100863.78;7396077;19;20377;-68
2023/03/19 04:21:27;;;;;;;20.85;14.75;;;;;;;8.12;65.37;100863.78;7394233;19;20163;-67
2023/03/19 04:23:56;;;;;;;21.30;14.55;;;;;;;8.08;65.62;100854.25;7394826;19;20085;-68
2023/03/19 04:26:24;;;;;;;23.05;14.23;;;;;;;8.05;65.81;100862.13;7393814;19;20351;-68
2023/03/19 04:28:53;;;;;;;23.50;14.95;;;;;;;8.06;65.97;100868.22;7395419;19;20014;-68
2023/03/19 04:31:21;;;;;;;26.88;16.42;;;;;;;8.04;66.02;100852.56;7393604;19;20011;-68
2023/03/19 04:33:52;;;;;;;20.70;15.18;;;;;;;8.03;66.04;100850.81;7394596;19;20074;-68
2023/03/19 04:36:21;;;;;;;23.25;15.13;;;;;;;8.04;66.34;100856.91;7395613;19;20020;-68
2023/03/19 04:38:50;;;;;;;21.23;15.48;;;;;;;8.03;66.44;100858.66;7394982;19;20011;-67
2023/03/19 04:41:19;;;;;;;21.23;15.02;;;;;;;8.03;66.38;100855.19;7394963;19;20021;-68
2023/03/19 04:43:47;;;;;;;22.42;14.07;;;;;;;8.02;66.75;100853.44;7394359;19;20018;-68
2023/03/19 04:46:16;;;;;;;21.17;15.10;;;;;;;8.01;66.81;100855.19;7394906;19;20090;-68
2023/03/19 04:48:44;;;;;;;23.58;15.77;;;;;;;7.98;66.71;100861.31;7393184;19;20018;-68
2023/03/19 04:51:15;;;;;;;21.02;14.82;;;;;;;7.98;66.79;100861.31;7393797;19;20014;-68
2023/03/19 04:53:44;;;;;;;21.67;15.10;;;;;;;7.96;67.15;100854.34;7394351;19;20025;-68
2023/03/19 04:56:15;;;;;;;20.15;15.10;;;;;;;7.94;67.16;100853.53;7394816;19;20019;-67
2023/03/19 04:58:43;;;;;;;23.42;15.07;;;;;;;7.90;67.07;100857.91;7394739;19;20015;-68
2023/03/19 05:01:12;;;;;;;23.70;16.60;;;;;;;7.88;67.63;100862.28;7393094;19;20078;-68
2023/03/19 05:03:40;;;;;;;23.48;16.98;;;;;;;7.86;67.55;100855.31;7393817;19;20027;-68
2023/03/19 05:06:09;;;;;;;26.17;15.82;;;;;;;7.82;67.75;100857.09;7394416;19;20027;-68
2023/03/19 05:08:40;;;;;;;39.97;24.10;;;;;;;7.77;67.85;100858.88;7394723;19;20023;-68
2023/03/19 05:11:08;;;;;;;31.17;19.60;;;;;;;7.73;67.89;100858.03;7393772;19;20026;-68
2023/03/19 05:13:37;;;;;;;21.75;15.52;;;;;;;7.71;68.15;100848.47;7393124;19;20096;-68
2023/03/19 05:16:06;;;;;;;23.63;16.50;;;;;;;7.68;68.12;100844.16;7392629;19;20078;-68
2023/03/19 05:18:35;;;;;;;25.40;16.30;;;;;;;7.66;68.23;100854.63;7392558;19;20079;-68
2023/03/19 05:21:03;;;;;;;21.27;15.27;;;;;;;7.66;68.42;100845.94;7394297;19;20025;-68
2023/03/19 05:23:32;;;;;;;20.80;15.30;;;;;;;7.64;68.47;100848.53;7393191;19;20015;-68
2023/03/19 05:26:03;;;;;;;21.48;14.13;;;;;;;7.64;68.39;100853.75;7392210;19;20078;-67
2023/03/19 05:28:31;;;;;;;21.17;15.18;;;;;;;7.63;68.45;100844.22;7394677;19;20086;-68
2023/03/19 05:31:00;;;;;;;21.98;15.90;;;;;;;7.61;68.54;100840.72;7391754;19;20066;-68
2023/03/19 05:33:28;;;;;;;22.67;15.88;;;;;;;7.60;68.75;100849.44;7398993;19;20077;-68
2023/03/19 05:35:57;;;;;;;21.77;15.45;;;;;;;7.59;68.75;100852.91;7398713;19;20018;-68
2023/03/19 05:38:25;;;;;;;22.13;14.57;;;;;;;7.59;68.76;100841.63;7400940;19;20086;-68
2023/03/19 05:40:54;;;;;;;24.33;15.38;;;;;;;7.59;68.78;100845.09;7398607;19;20078;-68
2023/03/19 05:43:25;;;;;;;24.80;15.80;;;;;;;7.57;68.91;100849.47;7398044;19;20086;-68
2023/03/19 05:45:53;;;;;;;22.38;16.15;;;;;;;7.56;68.78;100839.06;7401567;19;20074;-68
2023/03/19 05:48:22;;;;;;;20.67;15.80;;;;;;;7.55;68.90;100840.78;7398031;19;20087;-68
2023/03/19 05:50:51;;;;;;;21.30;14.85;;;;;;;7.55;69.10;100848.59;7399336;19;20497;-68
2023/03/19 05:53:20;;;;;;;23.17;15.82;;;;;;;7.52;69.06;100843.44;7397858;19;20508;-68
2023/03/19 05:55:48;;;;;;;22.63;16.08;;;;;;;7.53;69.20;100849.50;7400824;19;20059;-68
2023/03/19 05:58:18;;;;;;;22.13;15.98;;;;;;;7.53;68.96;100855.56;7400402;19;20086;-68
2023/03/19 06:00:50;;;;;;;23.00;15.27;;;;;;;7.52;69.04;100853.88;7400632;19;20030;-68
2023/03/19 06:03:18;;;;;;;24.25;16.10;;;;;;;7.51;69.25;100849.50;7399227;19;20026;-67
2023/03/19 06:05:50;;;;;;;21.17;15.32;;;;;;;7.53;68.93;100857.34;7400014;19;20018;-68
2023/03/19 06:08:19;;;;;;;21.58;15.30;;;;;;;7.52;69.18;100869.53;7400784;19;20070;-68
2023/03/19 06:10:48;;;;;;;24.83;16.15;;;;;;;7.56;69.27;100881.69;7399084;19;20078;-68
2023/03/19 06:13:16;;;;;;;28.33;17.38;;;;;;;7.59;69.12;100883.41;7397595;19;20347;-68
2023/03/19 06:15:45;;;;;;;23.63;15.10;;;;;;;7.59;69.18;100884.25;7399993;19;20078;-68
2023/03/19 06:18:16;;;;;;;20.38;15.10;;;;;;;7.61;69.10;100874.69;7399646;19;20081;-68
2023/03/19 06:20:44;;;;;;;24.00;15.27;;;;;;;7.65;69.03;100875.53;7400081;19;20078;-68
2023/03/19 06:23:13;;;;;;;20.95;14.73;;;;;;;7.70;69.07;100888.56;7398663;19;20554;-68
2023/03/19 06:25:41;;;;;;;22.90;14.45;;;;;;;7.73;69.04;100893.75;7397223;19;20067;-68
2023/03/19 06:28:10;;;;;;;24.30;16.95;;;;;;;7.76;69.10;100899.81;7399088;19;20014;-68
2023/03/19 06:30:38;;;;;;;29.33;18.20;;;;;;;7.77;68.84;100893.72;7397719;19;20010;-68
2023/03/19 06:33:07;;;;;;;29.42;18.70;;;;;;;7.81;68.83;100884.13;7398882;19;20102;-68
2023/03/19 06:35:38;;;;;;;25.95;17.92;;;;;;;7.82;68.94;100891.94;7397017;19;20087;-68
2023/03/19 06:38:06;;;;;;;27.20;15.95;;;;;;;7.88;68.80;100898.84;7399847;19;20081;-68
2023/03/19 06:40:35;;;;;;;25.58;17.38;;;;;;;7.92;68.82;100886.63;7399199;19;20098;-68
2023/03/19 06:43:03;;;;;;;21.10;15.13;;;;;;;7.96;68.67;100891.81;7397350;19;20482;-67
2023/03/19 06:45:32;;;;;;;23.63;16.50;;;;;;;7.99;68.55;100896.16;7398232;19;20035;-68
2023/03/19 06:48:00;;;;;;;23.95;16.42;;;;;;;8.04;68.35;100893.47;7398975;19;20015;-68
2023/03/19 06:50:29;;;;;;;24.73;15.15;;;;;;;8.10;68.36;100901.25;7398660;19;20021;-68
2023/03/19 06:53:01;;;;;;;21.85;15.73;;;;;;;8.11;68.23;100897.78;7398292;19;20031;-68
2023/03/19 06:55:29;;;;;;;22.98;15.40;;;;;;;8.22;68.30;100903.78;7399289;19;20026;-68
2023/03/19 06:57:58;;;;;;;22.58;14.90;;;;;;;8.28;67.99;100902.88;7398939;19;20018;-68
2023/03/19 07:00:26;;;;;;;21.50;14.25;;;;;;;8.35;67.55;100903.66;7398755;19;20070;-68
2023/03/19 07:02:55;;;;;;;20.33;14.10;;;;;;;8.41;67.30;100907.06;7397709;19;20428;-68
2023/03/19 07:05:23;;;;;;;21.27;14.02;;;;;;;8.48;66.88;100902.69;7398477;19;20102;-68
2023/03/19 07:07:52;;;;;;;20.42;13.30;;;;;;;8.54;66.80;100899.13;7398436;19;20099;-68
2023/03/19 07:10:24;;;;;;;23.77;14.80;;;;;;;8.60;66.44;100905.16;7397704;19;20423;-68
2023/03/19 07:12:52;;;;;;;20.52;14.23;;;;;;;8.69;66.30;100919.03;7396554;19;20070;-68
2023/03/19 07:15:21;;;;;;;21.50;15.48;;;;;;;8.75;66.27;100922.44;7395725;19;20545;-68
2023/03/19 07:17:50;;;;;;;23.42;15.32;;;;;;;8.82;66.14;100922.38;7396115;19;20025;-68
2023/03/19 07:20:19;;;;;;;21.33;14.25;;;;;;;8.88;65.93;100930.16;7397941;19;20039;-68
2023/03/19 07:22:48;;;;;;;21.30;14.40;;;;;;;8.94;65.85;100924.84;7397084;19;20502;-68
2023/03/19 07:25:16;;;;;;;20.75;14.32;;;;;;;9.00;65.43;100931.75;7397780;19;20031;-68
2023/03/19 07:27:48;;;;;;;19.92;14.00;;;;;;;9.03;65.37;100922.09;7397480;19;20082;-68
2023/03/19 07:30:17;;;;;;;21.13;13.75;;;;;;;9.10;65.24;100930.78;7395695;19;20075;-68
2023/03/19 07:32:46;;;;;;;20.42;14.30;;;;;;;9.14;64.87;100937.69;7396893;19;20017;-67
2023/03/19 07:35:15;;;;;;;19.73;13.93;;;;;;;9.18;64.58;100941.13;7397364;19;20423;-67
2023/03/19 07:37:44;;;;;;;20.55;13.93;;;;;;;9.19;64.39;100941.09;7397408;19;20074;-68
2023/03/19 07:40:13;;;;;;;22.52;14.50;;;;;;;9.20;64.45;100947.19;7396882;19;20423;-68
2023/03/19 07:42:41;;;;;;;17.42;13.13;;;;;;;9.19;64.32;100959.44;7396675;19;20035;-68
2023/03/19 07:45:14;;;;;;;18.77;13.18;;;;;;;9.21;64.12;100978.63;7394741;19;20086;-68
2023/03/19 07:47:42;;;;;;;19.23;14.73;;;;;;;9.22;64.16;101000.41;7397628;19;20011;-68
2023/03/19 07:50:12;;;;;;;19.58;14.57;;;;;;;9.21;64.26;101015.28;7396601;19;20477;-68
2023/03/19 07:52:41;;;;;;;21.10;14.57;;;;;;;9.18;64.77;101014.44;7394834;19;20478;-68
2023/03/19 07:55:10;;;;;;;22.92;14.88;;;;;;;9.10;65.64;101010.16;7396601;19;20074;-68
2023/03/19 07:57:38;;;;;;;20.92;14.48;;;;;;;9.02;66.68;101013.72;7395054;19;20082;-68
2023/03/19 08:00:09;;;;;;;22.80;14.48;;;;;;;8.90;68.17;101014.75;7396647;19;20030;-68
2023/03/19 08:02:41;;;;;;;23.73;15.02;;;;;;;8.77;69.88;100995.66;7396197;19;20074;-68
2023/03/19 08:05:10;;;;;;;23.58;15.70;;;;;;;8.66;71.09;100984.44;7396118;19;20497;-68
2023/03/19 08:07:40;;;;;;;22.80;14.75;;;;;;;8.56;72.45;100981.91;7396480;19;20078;-68
2023/03/19 08:10:09;;;;;;;27.02;16.40;;;;;;;8.47;73.69;100982.88;7396296;19;20028;-68
2023/03/19 08:12:39;;;;;;;22.90;15.75;;;;;;;8.39;74.42;100981.19;7394435;19;20082;-69
2023/03/19 08:15:11;;;;;;;24.70;17.10;;;;;;;8.35;75.42;100975.09;7396219;19;20409;-68
2023/03/19 08:17:42;;;;;;;24.35;16.27;;;;;;;8.30;76.57;100969.03;7394506;19;20375;-68
2023/03/19 08:20:15;;;;;;;25.73;17.65;;;;;;;8.27;77.47;100954.25;7393882;19;20442;-68
2023/03/19 08:22:44;;;;;;;23.00;16.90;;;;;;;8.23;78.29;100936.88;7394652;19;20019;-68
2023/03/19 08:25:13;;;;;;;22.58;16.85;;;;;;;8.22;78.79;100940.38;7395872;19;20082;-68
2023/03/19 08:27:42;;;;;;;24.63;17.52;;;;;;;8.19;79.56;100926.44;7395947;19;20022;-68
2023/03/19 08:30:13;;;;;;;24.52;17.48;;;;;;;8.20;80.21;100921.25;7393711;19;20065;-69
2023/03/19 08:32:45;;;;;;;22.73;17.13;;;;;;;8.22;80.62;100929.06;7393783;19;20481;-68
2023/03/19 08:35:14;;;;;;;23.90;17.90;;;;;;;8.24;80.99;100920.31;7395433;19;20038;-68
2023/03/19 08:37:43;;;;;;;25.17;18.75;;;;;;;8.32;81.65;100923.72;7395235;19;20039;-69
2023/03/19 08:40:13;;;;;;;26.15;18.17;;;;;;;8.39;82.05;100916.69;7393584;19;20015;-68
2023/03/19 08:42:42;;;;;;;25.95;19.20;;;;;;;8.46;82.16;100917.53;7393043;19;20031;-69
2023/03/19 08:45:12;;;;;;;26.40;18.95;;;;;;;8.54;82.48;100915.69;7395223;19;20078;-68
2023/03/19 08:47:41;;;;;;;23.23;17.42;;;;;;;8.61;82.80;100912.13;7393166;19;20447;-68
2023/03/19 08:50:13;;;;;;;26.13;19.77;;;;;;;8.73;82.98;100923.34;7395003;19;20077;-68
2023/03/19 08:52:41;;;;;;;25.23;16.98;;;;;;;8.79;83.16;100916.28;7393989;19;20078;-67
2023/03/19 08:55:11;;;;;;;25.45;20.27;;;;;;;8.90;83.46;100915.31;7393139;19;20086;-68
2023/03/19 08:57:39;;;;;;;26.30;18.35;;;;;;;9.01;83.60;100921.28;7392822;19;20506;-68
2023/03/19 09:00:09;;;;;;;23.10;17.42;;;;;;;9.12;83.94;100921.13;7394764;19;20022;-68
2023/03/19 09:02:39;;;;;;;25.30;18.00;;;;;;;9.24;84.10;100928.81;7392882;19;20035;-68
2023/03/19 09:05:08;;;;;;;26.02;19.98;;;;;;;9.37;84.16;100939.13;7394791;19;20015;-68
2023/03/19 09:07:39;;;;;;;26.77;19.88;;;;;;;9.49;84.05;100931.13;7397838;19;20375;-68
2023/03/19 09:10:08;;;;;;;24.10;17.80;;;;;;;9.61;84.01;100928.28;7402024;19;20507;-68
2023/03/19 09:12:37;;;;;;;22.13;16.52;;;;;;;9.75;84.14;100928.09;7399869;19;20026;-68
2023/03/19 09:15:06;;;;;;;21.83;16.60;;;;;;;9.92;84.15;100933.06;7401896;19;20427;-67
2023/03/19 09:17:34;;;;;;;26.08;17.00;;;;;;;10.08;84.15;100927.56;7398515;19;20380;-67
2023/03/19 09:20:04;;;;;;;23.13;16.08;;;;;;;10.23;83.92;100919.44;7401374;19;20023;-67
2023/03/19 09:22:42;;;;;;;19.02;15.02;;;;;;;10.40;83.16;100921.81;7401118;19;20016;-67
2023/03/19 09:25:11;;;;;;;21.55;15.00;;;;;;;10.54;83.39;100921.56;7401462;19;20021;-67
2023/03/19 09:27:39;;;;;;;17.23;13.68;;;;;;;10.67;83.01;100923.97;7401623;19;20023;-67
2023/03/19 09:30:15;;;;;;;22.15;14.70;;;;;;;10.79;82.83;100915.81;7397833;19;20074;-67
2023/03/19 09:32:50;;;;;;;17.17;12.63;;;;;;;10.89;81.17;100914.75;7399248;19;20094;-68
2023/03/19 09:35:19;;;;;;;17.67;12.68;;;;;;;10.97;80.85;100922.47;7401116;19;20083;-67
2023/03/19 09:37:50;;;;;;;20.63;13.00;;;;;;;11.06;80.15;100919.66;7401313;19;20014;-68
2023/03/19 09:40:25;;;;;;;16.25;12.10;;;;;;;11.17;77.61;100921.19;7398210;19;20094;-68
2023/03/19 09:43:08;;;;;;;29.05;18.02;;;;;;;11.32;79.07;100927.88;7400325;19;20541;-66
2023/03/19 09:45:36;;;;;;;16.60;11.65;;;;;;;11.48;79.16;100916.13;7401528;19;20029;-67
2023/03/19 09:48:13;;;;;;;17.55;12.75;;;;;;;11.64;78.29;100923.63;7398123;19;20417;-67
2023/03/19 09:50:41;;;;;;;16.23;11.30;;;;;;;11.77;77.13;100914.56;7400415;19;20021;-66
2023/03/19 09:53:21;;;;;;;14.95;11.23;;;;;;;11.90;76.81;100913.41;7398409;19;20099;-67
2023/03/19 09:55:53;;;;;;;15.50;11.15;;;;;;;12.01;75.78;100922.81;7400418;19;20027;-67
2023/03/19 09:58:24;;;;;;;14.50;11.02;;;;;;;12.11;75.01;100916.41;7400727;19;20379;-68
2023/03/19 10:00:55;;;;;;;15.85;11.30;;;;;;;12.21;73.63;100928.41;7400143;19;20358;-67
2023/03/19 10:03:35;;;;;;;17.27;10.77;;;;;;;12.28;73.48;100918.59;7398231;19;20078;-68
2023/03/19 10:06:17;;;;;;;15.07;9.75;;;;;;;12.38;73.16;100920.09;7400466;19;20018;-67
2023/03/19 10:09:04;;;;;;;14.18;10.25;;;;;;;12.45;68.71;100919.91;7400003;19;20495;-67
2023/03/19 10:11:49;;;;;;;13.88;9.93;;;;;;;12.51;72.74;100920.63;7397078;19;20358;-67
2023/03/19 10:14:45;;;;;;;13.82;9.73;;;;;;;12.58;71.16;100915.22;7398100;19;20018;-67
2023/03/19 10:17:19;;;;;;;11.43;9.05;;;;;;;12.66;71.35;100918.47;7400431;19;20070;-68
2023/03/19 10:19:53;;;;;;;12.77;9.45;;;;;;;12.76;72.54;100914.66;7395379;19;20019;-67
2023/03/19 10:22:26;;;;;;;11.50;9.00;;;;;;;12.85;71.47;100916.19;7400245;19;20070;-68
2023/03/19 10:24:59;;;;;;;11.32;8.60;;;;;;;12.94;71.05;100921.22;7400061;19;20086;-68
2023/03/19 10:27:30;;;;;;;12.82;9.25;;;;;;;13.03;70.93;100917.44;7400155;19;20026;-67
2023/03/19 10:29:58;;;;;;;20.10;11.45;;;;;;;13.11;71.24;100920.69;7399759;19;20022;-68
2023/03/19 10:32:37;;;;;;;19.92;12.05;;;;;;;13.20;70.77;100917.81;7397197;19;20070;-68
2023/03/19 10:35:11;;;;;;;16.08;10.93;;;;;;;13.29;70.41;100913.16;7399963;19;20022;-67
2023/03/19 10:37:40;;;;;;;11.90;8.80;;;;;;;13.39;70.86;100924.31;7399869;19;20082;-68
2023/03/19 10:40:20;;;;;;;23.02;13.55;;;;;;;13.46;69.47;100917.97;7398910;19;20542;-68
2023/03/19 10:43:03;;;;;;;15.40;10.23;;;;;;;13.58;69.48;100922.81;7396993;19;20031;-68
2023/03/19 10:45:34;;;;;;;23.23;15.15;;;;;;;13.67;69.00;100927.81;7399154;19;20391;-68
2023/03/19 10:48:05;;;;;;;17.77;11.25;;;;;;;13.74;69.07;100923.22;7396921;19;20086;-68
2023/03/19 10:50:38;;;;;;;15.82;11.18;;;;;;;13.83;68.42;100930.81;7399039;19;20434;-68
2023/03/19 10:53:22;;;;;;;19.60;12.65;;;;;;;13.90;68.14;100926.22;7397032;19;20022;-68
2023/03/19 10:55:56;;;;;;;18.92;13.10;;;;;;;13.97;67.31;100924.25;7399591;19;20090;-68
2023/03/19 10:58:28;;;;;;;17.77;12.95;;;;;;;14.03;67.21;100929.31;7396332;19;20018;-68
2023/03/19 11:00:59;;;;;;;12.52;10.98;;;;;;;14.09;67.30;100931.75;7399191;19;20022;-68
2023/03/19 11:03:33;;;;;;;14.57;10.68;;;;;;;14.15;66.32;100926.28;7396796;19;20023;-67
2023/03/19 11:06:19;;;;;;;16.42;10.70;;;;;;;14.24;65.09;100929.50;7396566;19;20042;-68
2023/03/19 11:08:56;;;;;;;12.88;9.68;;;;;;;14.32;66.25;100935.38;7396473;19;20022;-67
2023/03/19 11:11:35;;;;;;;12.65;9.02;;;;;;;14.40;66.03;100933.34;7398656;19;20025;-67
2023/03/19 11:14:15;;;;;;;12.70;9.07;;;;;;;14.48;65.97;100928.66;7396338;19;20084;-67
2023/03/19 11:16:58;;;;;;;14.95;9.00;;;;;;;14.58;63.74;100931.81;7398117;19;20082;-67
2023/03/19 11:19:29;;;;;;;14.90;8.90;;;;;;;14.67;65.78;100922.75;7395653;19;20016;-67
2023/03/19 11:22:04;;;;;;;10.50;7.20;;;;;;;14.73;64.47;100919.88;7395547;19;20079;-67
2023/03/19 11:24:39;;;;;;;9.63;6.65;;;;;;;14.79;64.03;100905.59;7395719;19;20022;-68
2023/03/19 11:27:11;;;;;;;8.35;6.30;;;;;;;14.93;64.38;100919.16;7396084;19;20082;-68
2023/03/19 11:29:43;;;;;;;10.68;6.05;;;;;;;15.04;63.94;100925.81;7396675;19;20014;-68
2023/03/19 11:32:24;;;;;;;10.43;7.10;;;;;;;15.15;63.14;100919.22;7396109;19;20010;-68